createdAt,value
2023-01-23T00:03:09.151Z,36.80
2023-01-23T00:07:12.664Z,32.90
2023-01-23T00:11:20.320Z,30.20
2023-01-23T00:15:23.570Z,32.80
2023-01-23T00:19:26.840Z,31.10
2023-01-23T00:23:29.949Z,29.30
2023-01-23T00:27:33.664Z,35.00
2023-01-23T00:31:39.230Z,35.10
2023-01-23T00:35:42.653Z,33.10
2023-01-23T00:39:46.201Z,38.40
2023-01-23T00:43:52.053Z,33.40
2023-01-23T00:47:55.276Z,34.80
2023-01-23T00:51:58.458Z,32.60
2023-01-23T00:56:02.146Z,32.90
2023-01-23T01:00:05.864Z,34.90
2023-01-23T01:04:09.265Z,30.40
2023-01-23T01:08:12.680Z,30.10
2023-01-23T01:12:15.837Z,27.70
2023-01-23T01:16:20.091Z,32.90
2023-01-23T01:20:26.216Z,34.60
2023-01-23T01:24:29.528Z,33.70
2023-01-23T01:28:34.548Z,35.80
2023-01-23T01:32:38.923Z,30.30
2023-01-23T01:36:42.001Z,32.40
2023-01-23T01:40:45.309Z,32.40
2023-01-23T01:44:54.308Z,30.80
2023-01-23T01:49:15.863Z,29.50
2023-01-23T01:53:21.980Z,30.20
2023-01-23T01:57:35.859Z,32.40
2023-01-23T02:01:40.499Z,31.00
2023-01-23T02:05:45.434Z,33.60
2023-01-23T02:09:49.436Z,30.20
2023-01-23T02:13:55.412Z,32.30
2023-01-23T02:17:58.603Z,35.00
2023-01-23T02:22:47.715Z,33.00
2023-01-23T02:26:51.068Z,30.90
2023-01-23T02:30:54.586Z,27.90
2023-01-23T02:35:00.304Z,31.30
2023-01-23T02:39:08.185Z,31.50
2023-01-23T02:43:15.185Z,33.00
2023-01-23T02:47:18.371Z,32.60
2023-01-23T02:51:22.483Z,33.60
2023-01-23T02:55:30.433Z,34.10
2023-01-23T03:00:02.785Z,34.00
2023-01-23T03:04:06.554Z,34.50
2023-01-23T03:08:10.002Z,33.20
2023-01-23T03:12:13.290Z,31.90
2023-01-23T03:16:16.635Z,34.10
2023-01-23T03:20:20.534Z,37.20
2023-01-23T03:24:23.867Z,37.10
2023-01-23T03:28:47.646Z,33.10
2023-01-23T03:32:51.415Z,35.60
2023-01-23T03:36:54.523Z,35.60
2023-01-23T03:41:16.253Z,34.50
2023-01-23T03:45:19.355Z,30.40
2023-01-23T03:49:23.615Z,35.80
2023-01-23T03:53:27.036Z,36.20
2023-01-23T03:57:30.176Z,31.10
2023-01-23T04:01:34.906Z,31.70
2023-01-23T04:05:38.542Z,34.20
2023-01-23T04:09:41.701Z,33.20
2023-01-23T04:13:46.657Z,32.60
2023-01-23T04:17:50.054Z,32.60
2023-01-23T04:21:53.597Z,31.50
2023-01-23T04:25:57.852Z,32.00
2023-01-23T04:30:01.607Z,33.50
2023-01-23T04:34:05.450Z,32.20
2023-01-23T04:38:09.011Z,36.40
2023-01-23T04:42:12.492Z,34.10
2023-01-23T04:46:16.429Z,64.10
2023-01-23T04:50:20.404Z,34.30
2023-01-23T04:54:23.929Z,39.30
2023-01-23T04:58:27.702Z,37.00
2023-01-23T05:02:31.060Z,31.40
2023-01-23T05:06:34.865Z,38.50
2023-01-23T05:10:38.503Z,36.10
2023-01-23T05:14:42.372Z,38.60
2023-01-23T05:18:45.624Z,35.50
2023-01-23T05:22:54.848Z,33.60
2023-01-23T05:26:58.813Z,35.70
2023-01-23T05:31:02.142Z,39.90
2023-01-23T05:35:06.159Z,40.80
2023-01-23T05:39:09.388Z,38.00
2023-01-23T05:43:15.387Z,35.50
2023-01-23T05:47:18.564Z,35.60
2023-01-23T05:51:23.555Z,35.50
2023-01-23T05:55:26.672Z,33.20
2023-01-23T05:59:30.323Z,36.20
2023-01-23T06:03:34.046Z,35.40
2023-01-23T06:07:37.747Z,38.80
2023-01-23T06:11:41.391Z,33.20
2023-01-23T06:15:44.717Z,33.70
2023-01-23T06:19:48.889Z,35.60
2023-01-23T06:23:52.125Z,34.90
2023-01-23T06:27:55.454Z,35.30
2023-01-23T06:31:58.720Z,33.50
2023-01-23T06:36:05.670Z,33.30
2023-01-23T06:40:13.398Z,37.50
2023-01-23T06:44:16.769Z,35.40
2023-01-23T06:48:20.960Z,31.40
2023-01-23T06:52:24.169Z,35.90
2023-01-23T06:56:27.399Z,34.10
2023-01-23T07:00:31.511Z,35.40
2023-01-23T07:04:34.787Z,36.10
2023-01-23T07:08:38.633Z,36.60
2023-01-23T07:12:41.871Z,36.40
2023-01-23T07:16:45.184Z,37.00
2023-01-23T07:20:50.053Z,34.40
2023-01-23T07:24:53.684Z,36.20
2023-01-23T07:28:56.765Z,34.10
2023-01-23T07:33:00.226Z,34.10
2023-01-23T07:37:03.530Z,34.90
2023-01-23T07:41:07.139Z,31.10
2023-01-23T07:45:11.174Z,39.80
2023-01-23T07:49:14.489Z,57.60
2023-01-23T07:53:17.617Z,53.40
2023-01-23T07:57:20.725Z,41.60
2023-01-23T08:01:24.065Z,37.10
2023-01-23T08:05:27.624Z,34.50
2023-01-23T08:09:30.869Z,34.70
2023-01-23T08:13:34.024Z,32.50
2023-01-23T08:17:37.492Z,35.50
2023-01-23T08:21:40.850Z,41.00
2023-01-23T08:25:43.994Z,39.60
2023-01-23T08:29:47.391Z,42.30
2023-01-23T08:33:50.532Z,36.40
2023-01-23T08:37:53.735Z,37.20
2023-01-23T08:41:56.957Z,45.40
2023-01-23T08:46:00.584Z,53.30
2023-01-23T08:50:05.458Z,44.40
2023-01-23T08:54:08.516Z,42.20
2023-01-23T08:58:13.258Z,41.50
2023-01-23T09:02:16.432Z,39.70
2023-01-23T09:06:21.781Z,40.10
2023-01-23T09:10:25.529Z,38.00
2023-01-23T09:14:28.666Z,41.60
2023-01-23T09:18:32.075Z,38.80
2023-01-23T09:22:35.515Z,33.70
2023-01-23T09:26:38.670Z,40.10
2023-01-23T09:30:42.454Z,34.30
2023-01-23T09:34:49.034Z,39.80
2023-01-23T09:42:58.942Z,30.70
2023-01-23T09:47:13.637Z,36.20
2023-01-23T09:51:29.117Z,35.30
2023-01-23T09:55:49.769Z,41.20
2023-01-23T10:00:00.216Z,37.10
2023-01-23T10:04:05.701Z,38.30
2023-01-23T10:08:34.314Z,43.00
2023-01-23T10:12:49.414Z,44.00
2023-01-23T10:17:23.147Z,39.00
2023-01-23T10:21:36.218Z,42.60
2023-01-23T10:25:41.277Z,37.00
2023-01-23T10:29:49.498Z,39.00
2023-01-23T10:34:00.035Z,35.10
2023-01-23T10:38:26.245Z,41.50
2023-01-23T10:42:29.643Z,36.30
2023-01-23T10:46:49.025Z,37.10
2023-01-23T10:50:52.129Z,39.10
2023-01-23T10:54:55.314Z,32.90
2023-01-23T10:59:01.888Z,34.10
2023-01-23T11:07:32.505Z,38.80
2023-01-23T11:11:36.459Z,36.70
2023-01-23T11:15:42.774Z,39.30
2023-01-23T11:19:48.815Z,36.40
2023-01-23T11:24:20.438Z,35.10
2023-01-23T11:28:47.673Z,42.30
2023-01-23T11:33:02.141Z,41.10
2023-01-23T11:37:17.735Z,46.40
2023-01-23T11:41:28.465Z,37.20
2023-01-23T11:45:43.986Z,41.90
2023-01-23T11:50:05.575Z,44.10
2023-01-23T11:54:29.372Z,44.20
2023-01-23T11:59:12.908Z,41.40
2023-01-23T12:03:34.465Z,39.80
2023-01-23T12:07:43.768Z,38.60
2023-01-23T12:12:11.205Z,42.30
2023-01-23T12:16:26.580Z,40.10
2023-01-23T12:20:37.904Z,38.20
2023-01-23T12:25:18.439Z,42.40
2023-01-23T12:29:39.522Z,41.40
2023-01-23T12:34:00.760Z,41.10
2023-01-23T12:38:25.141Z,36.90
2023-01-23T12:42:41.521Z,37.70
2023-01-23T12:46:57.319Z,36.20
2023-01-23T12:51:12.769Z,37.60
2023-01-23T12:55:19.349Z,37.90
2023-01-23T12:59:48.203Z,40.40
2023-01-23T13:03:57.082Z,44.60
2023-01-23T13:08:13.352Z,41.50
2023-01-23T13:12:25.530Z,38.90
2023-01-23T13:16:32.088Z,44.20
2023-01-23T13:25:13.192Z,42.70
2023-01-23T13:29:49.927Z,38.00
2023-01-23T13:33:58.844Z,36.60
2023-01-23T13:38:42.416Z,32.90
2023-01-23T13:42:45.924Z,41.00
2023-01-23T14:23:16.921Z,43.50
2023-01-23T14:32:21.105Z,34.60
2023-01-23T15:24:36.976Z,44.50
2023-01-23T15:28:49.150Z,43.30
2023-01-23T15:32:53.235Z,47.20
2023-01-23T15:37:14.407Z,46.90
2023-01-23T15:41:30.158Z,49.90
2023-01-23T15:59:24.413Z,48.70
2023-01-23T16:03:28.533Z,58.90
2023-01-23T16:26:30.009Z,59.30
2023-01-23T16:30:34.759Z,61.50
2023-01-23T17:07:50.979Z,54.20
2023-01-23T17:11:57.147Z,51.50
2023-01-23T17:16:01.182Z,53.90
2023-01-23T17:20:31.418Z,61.30
2023-01-23T17:24:35.062Z,62.00
2023-01-23T17:33:32.278Z,56.70
2023-01-23T17:51:34.223Z,53.90
2023-01-23T17:55:40.985Z,57.40
2023-01-23T18:14:40.249Z,60.40
2023-01-23T18:18:44.527Z,56.80
2023-01-23T18:22:49.406Z,54.60
2023-01-23T18:27:23.801Z,51.50
2023-01-23T18:32:03.370Z,57.00
2023-01-23T18:36:21.854Z,55.30
2023-01-23T18:40:29.944Z,52.20
2023-01-23T18:44:34.818Z,55.10
2023-01-23T18:48:41.147Z,62.50
2023-01-23T18:53:25.288Z,61.40
2023-01-23T18:57:52.054Z,53.40
2023-01-23T19:07:19.209Z,53.80
2023-01-23T19:11:52.836Z,51.20
2023-01-23T19:16:06.447Z,47.40
2023-01-23T19:20:35.977Z,47.80
2023-01-23T19:24:39.139Z,45.70
2023-01-23T19:28:42.379Z,50.20
2023-01-23T19:32:48.248Z,51.30
2023-01-23T19:36:51.042Z,47.30
2023-01-23T19:40:55.146Z,47.70
2023-01-23T19:44:58.873Z,50.30
2023-01-23T19:49:03.909Z,50.10
2023-01-23T19:53:06.883Z,54.20
2023-01-23T19:57:09.808Z,49.00
2023-01-23T20:01:33.375Z,49.70
2023-01-23T20:05:36.227Z,52.20
2023-01-23T20:09:39.561Z,52.60
2023-01-23T20:13:42.496Z,54.60
2023-01-23T20:17:46.534Z,47.10
2023-01-23T20:21:55.362Z,52.80
2023-01-23T20:26:00.428Z,63.70
2023-01-23T20:30:08.074Z,71.50
2023-01-23T20:34:10.845Z,57.00
2023-01-23T20:38:13.726Z,52.60
2023-01-23T20:43:16.526Z,57.70
2023-01-23T20:47:19.366Z,51.30
2023-01-23T20:51:27.474Z,67.70
2023-01-23T20:55:30.234Z,57.20
2023-01-23T20:59:33.637Z,53.70
2023-01-23T21:03:36.980Z,50.70
2023-01-23T21:07:42.200Z,53.30
2023-01-23T21:12:15.777Z,54.10
2023-01-23T21:16:19.068Z,62.00
2023-01-23T21:20:27.116Z,46.50
2023-01-23T21:24:34.257Z,47.10
2023-01-23T21:29:29.887Z,48.70
2023-01-23T21:33:32.674Z,49.30
2023-01-23T21:37:43.863Z,49.00
2023-01-23T21:41:46.959Z,47.30
2023-01-23T21:45:49.724Z,50.20
2023-01-23T21:49:52.576Z,51.30
2023-01-23T21:53:55.599Z,62.20
2023-01-23T21:57:58.352Z,57.20
2023-01-23T22:02:01.147Z,49.50
2023-01-23T22:06:04.185Z,51.20
2023-01-23T22:10:32.856Z,52.70
2023-01-23T22:14:35.719Z,47.90
2023-01-23T22:18:38.614Z,54.70
2023-01-23T22:22:41.417Z,51.90
2023-01-23T22:26:44.238Z,47.80
2023-01-23T22:30:47.111Z,43.10
2023-01-23T22:34:50.029Z,47.20
2023-01-23T22:39:05.415Z,48.60
2023-01-23T22:43:09.240Z,48.10
2023-01-23T22:47:27.259Z,47.10
2023-01-23T22:51:31.533Z,53.40
2023-01-23T22:55:34.375Z,52.80
2023-01-23T22:59:37.183Z,54.80
2023-01-23T23:03:40.414Z,47.30
2023-01-23T23:08:37.356Z,47.40
2023-01-23T23:12:40.237Z,47.40
2023-01-23T23:16:55.631Z,53.60
2023-01-23T23:21:00.484Z,56.00
2023-01-23T23:26:25.053Z,49.60
2023-01-23T23:30:27.948Z,47.10
2023-01-23T23:34:32.939Z,50.20
2023-01-23T23:38:35.761Z,49.20
2023-01-23T23:42:43.603Z,48.30
2023-01-23T23:46:46.499Z,48.70
2023-01-23T23:51:58.625Z,48.80
2023-01-23T23:56:01.763Z,45.90
